sensor_id;sensor_type;location;lat;lon;timestamp;P1;durP1;ratioP1;P2;durP2;ratioP2
71296;SDS011;59082;50.658;4.608;2022-08-19T00:01:51;16.88;;;12.43;;
71296;SDS011;59082;50.658;4.608;2022-08-19T00:04:18;13.82;;;11.65;;
71296;SDS011;59082;50.658;4.608;2022-08-19T00:06:50;14.23;;;11.83;;
71296;SDS011;59082;50.658;4.608;2022-08-19T00:09:16;19.23;;;15.93;;
71296;SDS011;59082;50.658;4.608;2022-08-19T00:11:44;19.15;;;17.05;;
71296;SDS011;59082;50.658;4.608;2022-08-19T00:14:11;19.63;;;17.33;;
71296;SDS011;59082;50.658;4.608;2022-08-19T00:16:38;23.50;;;19.42;;
71296;SDS011;59082;50.658;4.608;2022-08-19T00:19:06;21.87;;;19.33;;
71296;SDS011;59082;50.658;4.608;2022-08-19T00:21:32;21.40;;;19.17;;
71296;SDS011;59082;50.658;4.608;2022-08-19T00:23:58;26.60;;;19.63;;
71296;SDS011;59082;50.658;4.608;2022-08-19T00:26:24;24.17;;;19.40;;
71296;SDS011;59082;50.658;4.608;2022-08-19T00:28:50;23.98;;;18.60;;
71296;SDS011;59082;50.658;4.608;2022-08-19T00:31:16;25.35;;;18.58;;
71296;SDS011;59082;50.658;4.608;2022-08-19T00:33:41;22.77;;;18.77;;
71296;SDS011;59082;50.658;4.608;2022-08-19T00:36:08;21.55;;;19.00;;
71296;SDS011;59082;50.658;4.608;2022-08-19T00:38:34;21.98;;;18.27;;
71296;SDS011;59082;50.658;4.608;2022-08-19T00:41:01;20.35;;;18.15;;
71296;SDS011;59082;50.658;4.608;2022-08-19T00:43:27;21.03;;;18.73;;
71296;SDS011;59082;50.658;4.608;2022-08-19T00:45:53;21.02;;;17.02;;
71296;SDS011;59082;50.658;4.608;2022-08-19T00:48:19;19.73;;;16.63;;
71296;SDS011;59082;50.658;4.608;2022-08-19T00:50:46;19.83;;;16.08;;
71296;SDS011;59082;50.658;4.608;2022-08-19T00:53:14;21.42;;;16.75;;
71296;SDS011;59082;50.658;4.608;2022-08-19T00:55:47;21.65;;;16.33;;
71296;SDS011;59082;50.658;4.608;2022-08-19T00:58:15;20.52;;;16.48;;
71296;SDS011;59082;50.658;4.608;2022-08-19T01:00:43;20.03;;;16.63;;
71296;SDS011;59082;50.658;4.608;2022-08-19T01:03:10;19.30;;;15.60;;
71296;SDS011;59082;50.658;4.608;2022-08-19T01:05:37;24.00;;;18.42;;
71296;SDS011;59082;50.658;4.608;2022-08-19T01:08:06;20.58;;;17.10;;
71296;SDS011;59082;50.658;4.608;2022-08-19T01:10:33;23.95;;;17.98;;
71296;SDS011;59082;50.658;4.608;2022-08-19T01:13:04;26.37;;;19.47;;
71296;SDS011;59082;50.658;4.608;2022-08-19T01:15:31;23.13;;;18.48;;
71296;SDS011;59082;50.658;4.608;2022-08-19T01:18:04;26.88;;;18.83;;
71296;SDS011;59082;50.658;4.608;2022-08-19T01:20:33;28.20;;;20.60;;
71296;SDS011;59082;50.658;4.608;2022-08-19T01:22:59;28.77;;;21.30;;
71296;SDS011;59082;50.658;4.608;2022-08-19T01:25:29;28.92;;;20.30;;
71296;SDS011;59082;50.658;4.608;2022-08-19T01:27:58;33.45;;;20.80;;
71296;SDS011;59082;50.658;4.608;2022-08-19T01:30:25;31.07;;;21.47;;
71296;SDS011;59082;50.658;4.608;2022-08-19T01:32:54;29.70;;;22.17;;
71296;SDS011;59082;50.658;4.608;2022-08-19T01:35:21;29.70;;;21.25;;
71296;SDS011;59082;50.658;4.608;2022-08-19T01:37:59;30.25;;;20.95;;
71296;SDS011;59082;50.658;4.608;2022-08-19T01:40:28;31.27;;;21.77;;
71296;SDS011;59082;50.658;4.608;2022-08-19T01:42:56;34.40;;;23.40;;
71296;SDS011;59082;50.658;4.608;2022-08-19T01:45:23;34.83;;;23.02;;
71296;SDS011;59082;50.658;4.608;2022-08-19T01:47:50;25.00;;;18.50;;
71296;SDS011;59082;50.658;4.608;2022-08-19T01:50:16;24.98;;;17.73;;
71296;SDS011;59082;50.658;4.608;2022-08-19T01:52:42;25.00;;;18.80;;
71296;SDS011;59082;50.658;4.608;2022-08-19T01:55:10;24.42;;;18.23;;
71296;SDS011;59082;50.658;4.608;2022-08-19T01:57:38;26.08;;;18.10;;
71296;SDS011;59082;50.658;4.608;2022-08-19T02:00:07;28.65;;;18.40;;
71296;SDS011;59082;50.658;4.608;2022-08-19T02:02:35;25.77;;;18.23;;
71296;SDS011;59082;50.658;4.608;2022-08-19T02:05:01;27.85;;;19.52;;
71296;SDS011;59082;50.658;4.608;2022-08-19T02:07:26;30.40;;;20.70;;
71296;SDS011;59082;50.658;4.608;2022-08-19T02:09:53;34.10;;;21.80;;
71296;SDS011;59082;50.658;4.608;2022-08-19T02:12:19;36.13;;;23.27;;
71296;SDS011;59082;50.658;4.608;2022-08-19T02:14:45;38.90;;;23.80;;
71296;SDS011;59082;50.658;4.608;2022-08-19T02:17:11;42.70;;;25.38;;
71296;SDS011;59082;50.658;4.608;2022-08-19T02:19:37;35.33;;;22.77;;
71296;SDS011;59082;50.658;4.608;2022-08-19T02:22:02;31.25;;;22.15;;
71296;SDS011;59082;50.658;4.608;2022-08-19T02:24:28;33.83;;;22.77;;
71296;SDS011;59082;50.658;4.608;2022-08-19T02:26:53;39.73;;;24.63;;
71296;SDS011;59082;50.658;4.608;2022-08-19T02:29:19;36.05;;;23.63;;
71296;SDS011;59082;50.658;4.608;2022-08-19T02:31:45;43.97;;;26.37;;
71296;SDS011;59082;50.658;4.608;2022-08-19T02:34:10;42.73;;;26.27;;
71296;SDS011;59082;50.658;4.608;2022-08-19T02:36:36;46.97;;;26.53;;
71296;SDS011;59082;50.658;4.608;2022-08-19T02:39:02;42.35;;;26.55;;
71296;SDS011;59082;50.658;4.608;2022-08-19T02:41:29;45.60;;;27.60;;
71296;SDS011;59082;50.658;4.608;2022-08-19T02:43:59;44.00;;;26.13;;
71296;SDS011;59082;50.658;4.608;2022-08-19T02:46:30;47.92;;;25.90;;
71296;SDS011;59082;50.658;4.608;2022-08-19T02:48:59;40.83;;;24.20;;
71296;SDS011;59082;50.658;4.608;2022-08-19T02:51:29;41.38;;;25.67;;
71296;SDS011;59082;50.658;4.608;2022-08-19T02:53:57;43.25;;;25.27;;
71296;SDS011;59082;50.658;4.608;2022-08-19T02:56:23;39.57;;;24.47;;
71296;SDS011;59082;50.658;4.608;2022-08-19T02:58:50;38.42;;;24.13;;
71296;SDS011;59082;50.658;4.608;2022-08-19T03:01:23;35.20;;;23.65;;
71296;SDS011;59082;50.658;4.608;2022-08-19T03:03:54;37.87;;;23.30;;
71296;SDS011;59082;50.658;4.608;2022-08-19T03:06:21;35.47;;;22.30;;
71296;SDS011;59082;50.658;4.608;2022-08-19T03:08:47;36.22;;;23.00;;
71296;SDS011;59082;50.658;4.608;2022-08-19T03:11:15;32.60;;;20.85;;
71296;SDS011;59082;50.658;4.608;2022-08-19T03:13:45;30.73;;;19.47;;
71296;SDS011;59082;50.658;4.608;2022-08-19T03:16:11;34.10;;;21.00;;
71296;SDS011;59082;50.658;4.608;2022-08-19T03:18:37;29.52;;;20.02;;
71296;SDS011;59082;50.658;4.608;2022-08-19T03:21:03;27.30;;;18.43;;
71296;SDS011;59082;50.658;4.608;2022-08-19T03:23:30;26.77;;;18.40;;
71296;SDS011;59082;50.658;4.608;2022-08-19T03:25:55;30.47;;;18.80;;
71296;SDS011;59082;50.658;4.608;2022-08-19T03:28:21;29.65;;;19.02;;
71296;SDS011;59082;50.658;4.608;2022-08-19T03:30:56;30.10;;;18.63;;
71296;SDS011;59082;50.658;4.608;2022-08-19T03:33:35;27.05;;;17.55;;
71296;SDS011;59082;50.658;4.608;2022-08-19T03:36:02;30.10;;;19.15;;
71296;SDS011;59082;50.658;4.608;2022-08-19T03:38:28;27.85;;;18.27;;
71296;SDS011;59082;50.658;4.608;2022-08-19T03:40:54;28.50;;;18.30;;
71296;SDS011;59082;50.658;4.608;2022-08-19T03:43:20;26.70;;;17.10;;
71296;SDS011;59082;50.658;4.608;2022-08-19T03:45:46;30.10;;;18.70;;
71296;SDS011;59082;50.658;4.608;2022-08-19T03:48:13;26.58;;;17.13;;
71296;SDS011;59082;50.658;4.608;2022-08-19T03:50:41;31.30;;;17.60;;
71296;SDS011;59082;50.658;4.608;2022-08-19T03:53:07;32.00;;;18.80;;
71296;SDS011;59082;50.658;4.608;2022-08-19T03:55:34;32.85;;;19.42;;
71296;SDS011;59082;50.658;4.608;2022-08-19T03:58:04;33.83;;;18.73;;
71296;SDS011;59082;50.658;4.608;2022-08-19T04:00:31;32.15;;;18.83;;
71296;SDS011;59082;50.658;4.608;2022-08-19T04:02:57;34.00;;;19.03;;
71296;SDS011;59082;50.658;4.608;2022-08-19T04:05:23;29.42;;;19.00;;
71296;SDS011;59082;50.658;4.608;2022-08-19T04:07:48;32.33;;;18.67;;
71296;SDS011;59082;50.658;4.608;2022-08-19T04:10:14;39.53;;;20.60;;
71296;SDS011;59082;50.658;4.608;2022-08-19T04:12:39;32.47;;;19.93;;
71296;SDS011;59082;50.658;4.608;2022-08-19T04:15:05;33.55;;;19.15;;
71296;SDS011;59082;50.658;4.608;2022-08-19T04:17:31;33.83;;;19.40;;
71296;SDS011;59082;50.658;4.608;2022-08-19T04:19:57;33.80;;;19.08;;
71296;SDS011;59082;50.658;4.608;2022-08-19T04:22:22;33.45;;;20.00;;
71296;SDS011;59082;50.658;4.608;2022-08-19T04:24:48;33.60;;;19.73;;
71296;SDS011;59082;50.658;4.608;2022-08-19T04:27:13;33.03;;;19.87;;
71296;SDS011;59082;50.658;4.608;2022-08-19T04:29:39;33.45;;;20.08;;
71296;SDS011;59082;50.658;4.608;2022-08-19T04:32:06;32.60;;;19.10;;
71296;SDS011;59082;50.658;4.608;2022-08-19T04:34:32;36.03;;;20.50;;
71296;SDS011;59082;50.658;4.608;2022-08-19T04:36:58;37.13;;;22.03;;
71296;SDS011;59082;50.658;4.608;2022-08-19T04:39:25;42.67;;;22.20;;
71296;SDS011;59082;50.658;4.608;2022-08-19T04:42:14;44.47;;;23.48;;
71296;SDS011;59082;50.658;4.608;2022-08-19T04:44:59;41.43;;;22.30;;
71296;SDS011;59082;50.658;4.608;2022-08-19T04:47:24;41.88;;;21.65;;
71296;SDS011;59082;50.658;4.608;2022-08-19T04:49:50;40.10;;;21.20;;
71296;SDS011;59082;50.658;4.608;2022-08-19T04:52:16;37.22;;;20.15;;
71296;SDS011;59082;50.658;4.608;2022-08-19T04:54:42;35.77;;;20.23;;
71296;SDS011;59082;50.658;4.608;2022-08-19T04:57:07;35.30;;;19.55;;
71296;SDS011;59082;50.658;4.608;2022-08-19T04:59:34;35.90;;;19.23;;
71296;SDS011;59082;50.658;4.608;2022-08-19T05:02:00;31.05;;;17.95;;
71296;SDS011;59082;50.658;4.608;2022-08-19T05:04:26;34.17;;;18.53;;
71296;SDS011;59082;50.658;4.608;2022-08-19T05:06:56;32.42;;;18.83;;
71296;SDS011;59082;50.658;4.608;2022-08-19T05:09:22;30.60;;;18.50;;
71296;SDS011;59082;50.658;4.608;2022-08-19T05:11:47;29.33;;;18.30;;
71296;SDS011;59082;50.658;4.608;2022-08-19T05:14:14;29.55;;;17.23;;
71296;SDS011;59082;50.658;4.608;2022-08-19T05:16:40;29.80;;;17.87;;
71296;SDS011;59082;50.658;4.608;2022-08-19T05:19:06;30.13;;;17.65;;
71296;SDS011;59082;50.658;4.608;2022-08-19T05:21:50;28.45;;;16.70;;
71296;SDS011;59082;50.658;4.608;2022-08-19T05:24:34;27.20;;;16.67;;
71296;SDS011;59082;50.658;4.608;2022-08-19T05:27:01;24.80;;;15.63;;
71296;SDS011;59082;50.658;4.608;2022-08-19T05:29:27;23.55;;;14.60;;
71296;SDS011;59082;50.658;4.608;2022-08-19T05:31:54;27.23;;;15.98;;
71296;SDS011;59082;50.658;4.608;2022-08-19T05:34:21;23.02;;;15.40;;
71296;SDS011;59082;50.658;4.608;2022-08-19T05:36:50;26.38;;;15.07;;
71296;SDS011;59082;50.658;4.608;2022-08-19T05:39:20;27.73;;;16.13;;
71296;SDS011;59082;50.658;4.608;2022-08-19T05:41:47;23.40;;;14.27;;
71296;SDS011;59082;50.658;4.608;2022-08-19T05:44:14;21.77;;;13.73;;
71296;SDS011;59082;50.658;4.608;2022-08-19T05:46:42;25.67;;;15.93;;
71296;SDS011;59082;50.658;4.608;2022-08-19T05:49:12;28.07;;;15.77;;
71296;SDS011;59082;50.658;4.608;2022-08-19T05:51:39;26.88;;;15.88;;
71296;SDS011;59082;50.658;4.608;2022-08-19T05:54:05;24.63;;;16.17;;
71296;SDS011;59082;50.658;4.608;2022-08-19T05:56:32;26.77;;;15.40;;
71296;SDS011;59082;50.658;4.608;2022-08-19T05:59:01;26.35;;;16.00;;
71296;SDS011;59082;50.658;4.608;2022-08-19T06:01:27;27.33;;;16.17;;
71296;SDS011;59082;50.658;4.608;2022-08-19T06:03:53;27.52;;;16.88;;
71296;SDS011;59082;50.658;4.608;2022-08-19T06:06:19;25.63;;;15.70;;
71296;SDS011;59082;50.658;4.608;2022-08-19T06:08:44;26.45;;;17.27;;
71296;SDS011;59082;50.658;4.608;2022-08-19T06:11:16;27.60;;;17.05;;
71296;SDS011;59082;50.658;4.608;2022-08-19T06:13:43;29.80;;;17.00;;
71296;SDS011;59082;50.658;4.608;2022-08-19T06:16:12;31.97;;;18.10;;
71296;SDS011;59082;50.658;4.608;2022-08-19T06:18:37;28.25;;;17.10;;
71296;SDS011;59082;50.658;4.608;2022-08-19T06:21:03;26.13;;;16.23;;
71296;SDS011;59082;50.658;4.608;2022-08-19T06:23:29;28.38;;;17.35;;
71296;SDS011;59082;50.658;4.608;2022-08-19T06:25:55;27.45;;;17.75;;
71296;SDS011;59082;50.658;4.608;2022-08-19T06:28:20;29.37;;;17.77;;
71296;SDS011;59082;50.658;4.608;2022-08-19T06:30:49;26.35;;;16.38;;
71296;SDS011;59082;50.658;4.608;2022-08-19T06:33:16;28.37;;;16.57;;
71296;SDS011;59082;50.658;4.608;2022-08-19T06:35:41;30.60;;;17.58;;
71296;SDS011;59082;50.658;4.608;2022-08-19T06:38:07;26.43;;;16.10;;
71296;SDS011;59082;50.658;4.608;2022-08-19T06:40:34;26.45;;;17.50;;
71296;SDS011;59082;50.658;4.608;2022-08-19T06:43:01;26.70;;;16.53;;
71296;SDS011;59082;50.658;4.608;2022-08-19T06:45:27;28.58;;;17.50;;
71296;SDS011;59082;50.658;4.608;2022-08-19T06:47:53;26.15;;;16.80;;
71296;SDS011;59082;50.658;4.608;2022-08-19T06:50:21;25.38;;;16.42;;
71296;SDS011;59082;50.658;4.608;2022-08-19T06:52:47;24.97;;;14.83;;
71296;SDS011;59082;50.658;4.608;2022-08-19T06:55:12;22.92;;;14.77;;
71296;SDS011;59082;50.658;4.608;2022-08-19T06:57:38;22.90;;;14.40;;
71296;SDS011;59082;50.658;4.608;2022-08-19T07:00:04;22.47;;;13.67;;
71296;SDS011;59082;50.658;4.608;2022-08-19T07:02:33;22.65;;;14.13;;
71296;SDS011;59082;50.658;4.608;2022-08-19T07:05:02;22.15;;;13.65;;
71296;SDS011;59082;50.658;4.608;2022-08-19T07:07:28;21.30;;;13.88;;
71296;SDS011;59082;50.658;4.608;2022-08-19T07:09:54;19.37;;;11.73;;
71296;SDS011;59082;50.658;4.608;2022-08-19T07:12:19;17.27;;;11.77;;
71296;SDS011;59082;50.658;4.608;2022-08-19T07:14:45;18.98;;;11.95;;
71296;SDS011;59082;50.658;4.608;2022-08-19T07:17:11;17.63;;;10.80;;
71296;SDS011;59082;50.658;4.608;2022-08-19T07:19:37;17.87;;;9.97;;
71296;SDS011;59082;50.658;4.608;2022-08-19T07:22:04;16.17;;;9.50;;
71296;SDS011;59082;50.658;4.608;2022-08-19T07:24:32;14.57;;;8.50;;
71296;SDS011;59082;50.658;4.608;2022-08-19T07:26:58;12.00;;;8.07;;
71296;SDS011;59082;50.658;4.608;2022-08-19T07:29:27;11.35;;;6.78;;
71296;SDS011;59082;50.658;4.608;2022-08-19T07:31:54;10.00;;;6.30;;
71296;SDS011;59082;50.658;4.608;2022-08-19T07:34:24;11.45;;;7.50;;
71296;SDS011;59082;50.658;4.608;2022-08-19T07:36:50;10.65;;;6.25;;
71296;SDS011;59082;50.658;4.608;2022-08-19T07:39:17;11.10;;;6.13;;
71296;SDS011;59082;50.658;4.608;2022-08-19T07:41:45;11.57;;;6.70;;
71296;SDS011;59082;50.658;4.608;2022-08-19T07:44:11;10.50;;;6.97;;
71296;SDS011;59082;50.658;4.608;2022-08-19T07:46:39;9.57;;;6.70;;
71296;SDS011;59082;50.658;4.608;2022-08-19T07:49:06;10.95;;;7.38;;
71296;SDS011;59082;50.658;4.608;2022-08-19T07:51:33;10.43;;;6.40;;
71296;SDS011;59082;50.658;4.608;2022-08-19T07:53:59;14.23;;;7.40;;
71296;SDS011;59082;50.658;4.608;2022-08-19T07:56:25;9.23;;;6.70;;
71296;SDS011;59082;50.658;4.608;2022-08-19T07:58:51;13.35;;;6.32;;
71296;SDS011;59082;50.658;4.608;2022-08-19T08:01:19;11.60;;;5.83;;
71296;SDS011;59082;50.658;4.608;2022-08-19T08:03:47;8.13;;;5.57;;
71296;SDS011;59082;50.658;4.608;2022-08-19T08:06:32;8.65;;;5.63;;
71296;SDS011;59082;50.658;4.608;2022-08-19T08:09:17;7.28;;;4.65;;
71296;SDS011;59082;50.658;4.608;2022-08-19T08:11:53;6.35;;;4.97;;
71296;SDS011;59082;50.658;4.608;2022-08-19T08:14:25;7.37;;;4.03;;
71296;SDS011;59082;50.658;4.608;2022-08-19T08:16:54;7.35;;;4.47;;
71296;SDS011;59082;50.658;4.608;2022-08-19T08:19:21;7.13;;;4.63;;
71296;SDS011;59082;50.658;4.608;2022-08-19T08:21:48;7.07;;;4.50;;
71296;SDS011;59082;50.658;4.608;2022-08-19T08:24:15;7.47;;;4.32;;
71296;SDS011;59082;50.658;4.608;2022-08-19T08:26:41;7.80;;;5.23;;
71296;SDS011;59082;50.658;4.608;2022-08-19T08:29:08;8.52;;;4.75;;
71296;SDS011;59082;50.658;4.608;2022-08-19T08:31:38;6.13;;;3.70;;
71296;SDS011;59082;50.658;4.608;2022-08-19T08:34:05;4.60;;;3.63;;
71296;SDS011;59082;50.658;4.608;2022-08-19T08:36:31;6.10;;;4.40;;
71296;SDS011;59082;50.658;4.608;2022-08-19T08:39:00;6.20;;;5.10;;
71296;SDS011;59082;50.658;4.608;2022-08-19T08:44:03;8.00;;;4.35;;
71296;SDS011;59082;50.658;4.608;2022-08-19T08:51:52;7.72;;;4.38;;
71296;SDS011;59082;50.658;4.608;2022-08-19T08:54:25;5.45;;;3.60;;
71296;SDS011;59082;50.658;4.608;2022-08-19T08:56:56;5.30;;;3.55;;
71296;SDS011;59082;50.658;4.608;2022-08-19T08:59:30;4.30;;;3.53;;
71296;SDS011;59082;50.658;4.608;2022-08-19T09:01:59;7.07;;;3.90;;
71296;SDS011;59082;50.658;4.608;2022-08-19T09:04:24;6.47;;;4.10;;
71296;SDS011;59082;50.658;4.608;2022-08-19T09:09:34;5.88;;;3.38;;
71296;SDS011;59082;50.658;4.608;2022-08-19T09:14:49;6.17;;;3.23;;
71296;SDS011;59082;50.658;4.608;2022-08-19T09:17:16;5.43;;;3.72;;
71296;SDS011;59082;50.658;4.608;2022-08-19T09:22:15;4.93;;;3.70;;
71296;SDS011;59082;50.658;4.608;2022-08-19T09:24:40;5.73;;;3.23;;
71296;SDS011;59082;50.658;4.608;2022-08-19T09:27:06;4.77;;;3.33;;
71296;SDS011;59082;50.658;4.608;2022-08-19T09:29:31;7.27;;;3.70;;
71296;SDS011;59082;50.658;4.608;2022-08-19T09:31:57;5.73;;;3.10;;
71296;SDS011;59082;50.658;4.608;2022-08-19T09:34:22;5.23;;;3.73;;
71296;SDS011;59082;50.658;4.608;2022-08-19T09:36:48;7.57;;;3.58;;
71296;SDS011;59082;50.658;4.608;2022-08-19T09:39:19;7.68;;;3.78;;
71296;SDS011;59082;50.658;4.608;2022-08-19T09:41:44;5.80;;;3.87;;
71296;SDS011;59082;50.658;4.608;2022-08-19T09:44:10;4.83;;;3.77;;
71296;SDS011;59082;50.658;4.608;2022-08-19T09:46:37;5.88;;;3.30;;
71296;SDS011;59082;50.658;4.608;2022-08-19T09:49:03;4.90;;;3.40;;
71296;SDS011;59082;50.658;4.608;2022-08-19T09:51:31;6.07;;;2.90;;
71296;SDS011;59082;50.658;4.608;2022-08-19T09:53:58;3.55;;;2.85;;
71296;SDS011;59082;50.658;4.608;2022-08-19T09:56:26;4.82;;;3.22;;
71296;SDS011;59082;50.658;4.608;2022-08-19T09:58:52;5.40;;;3.30;;
71296;SDS011;59082;50.658;4.608;2022-08-19T10:01:19;6.10;;;3.83;;
71296;SDS011;59082;50.658;4.608;2022-08-19T10:03:51;5.47;;;3.70;;
71296;SDS011;59082;50.658;4.608;2022-08-19T10:06:20;6.95;;;5.03;;
71296;SDS011;59082;50.658;4.608;2022-08-19T10:08:47;8.13;;;5.50;;
71296;SDS011;59082;50.658;4.608;2022-08-19T10:11:13;7.60;;;5.50;;
71296;SDS011;59082;50.658;4.608;2022-08-19T10:13:41;8.85;;;5.95;;
71296;SDS011;59082;50.658;4.608;2022-08-19T10:16:10;9.45;;;6.70;;
71296;SDS011;59082;50.658;4.608;2022-08-19T10:18:37;11.65;;;6.32;;
71296;SDS011;59082;50.658;4.608;2022-08-19T10:21:06;9.05;;;6.72;;
71296;SDS011;59082;50.658;4.608;2022-08-19T10:23:34;9.30;;;6.83;;
71296;SDS011;59082;50.658;4.608;2022-08-19T10:26:02;10.32;;;6.55;;
71296;SDS011;59082;50.658;4.608;2022-08-19T10:28:31;8.30;;;6.78;;
71296;SDS011;59082;50.658;4.608;2022-08-19T10:31:21;8.55;;;5.90;;
71296;SDS011;59082;50.658;4.608;2022-08-19T10:33:49;9.77;;;6.25;;
71296;SDS011;59082;50.658;4.608;2022-08-19T10:36:19;7.87;;;5.33;;
71296;SDS011;59082;50.658;4.608;2022-08-19T10:38:50;7.97;;;5.47;;
71296;SDS011;59082;50.658;4.608;2022-08-19T10:41:20;8.18;;;5.22;;
71296;SDS011;59082;50.658;4.608;2022-08-19T10:43:50;7.25;;;5.25;;
71296;SDS011;59082;50.658;4.608;2022-08-19T10:46:17;9.48;;;5.22;;
71296;SDS011;59082;50.658;4.608;2022-08-19T10:48:43;7.17;;;5.00;;
71296;SDS011;59082;50.658;4.608;2022-08-19T10:51:10;8.20;;;5.50;;
71296;SDS011;59082;50.658;4.608;2022-08-19T10:53:54;9.32;;;4.78;;
71296;SDS011;59082;50.658;4.608;2022-08-19T10:56:20;7.45;;;5.28;;
71296;SDS011;59082;50.658;4.608;2022-08-19T10:59:04;8.60;;;5.30;;
71296;SDS011;59082;50.658;4.608;2022-08-19T11:01:31;7.93;;;5.47;;
71296;SDS011;59082;50.658;4.608;2022-08-19T11:03:59;11.73;;;6.60;;
71296;SDS011;59082;50.658;4.608;2022-08-19T11:06:25;12.05;;;7.15;;
71296;SDS011;59082;50.658;4.608;2022-08-19T11:08:53;11.20;;;7.43;;
71296;SDS011;59082;50.658;4.608;2022-08-19T11:11:20;10.02;;;6.45;;
71296;SDS011;59082;50.658;4.608;2022-08-19T11:13:46;8.77;;;5.63;;
71296;SDS011;59082;50.658;4.608;2022-08-19T11:16:14;7.60;;;5.50;;
71296;SDS011;59082;50.658;4.608;2022-08-19T11:18:42;8.07;;;4.97;;
71296;SDS011;59082;50.658;4.608;2022-08-19T11:21:14;6.40;;;4.65;;
71296;SDS011;59082;50.658;4.608;2022-08-19T11:23:42;5.05;;;3.90;;
71296;SDS011;59082;50.658;4.608;2022-08-19T11:26:09;5.35;;;3.60;;
71296;SDS011;59082;50.658;4.608;2022-08-19T11:28:35;5.43;;;3.60;;
71296;SDS011;59082;50.658;4.608;2022-08-19T11:31:01;5.93;;;4.57;;
71296;SDS011;59082;50.658;4.608;2022-08-19T11:33:28;5.60;;;4.05;;
71296;SDS011;59082;50.658;4.608;2022-08-19T11:35:56;4.85;;;3.75;;
71296;SDS011;59082;50.658;4.608;2022-08-19T11:38:24;6.95;;;4.55;;
71296;SDS011;59082;50.658;4.608;2022-08-19T11:40:59;7.63;;;4.47;;
71296;SDS011;59082;50.658;4.608;2022-08-19T11:43:26;7.45;;;4.82;;
71296;SDS011;59082;50.658;4.608;2022-08-19T11:45:53;8.75;;;5.13;;
71296;SDS011;59082;50.658;4.608;2022-08-19T11:48:20;7.65;;;5.65;;
71296;SDS011;59082;50.658;4.608;2022-08-19T11:50:49;7.50;;;6.00;;
71296;SDS011;59082;50.658;4.608;2022-08-19T11:53:19;10.03;;;7.53;;
71296;SDS011;59082;50.658;4.608;2022-08-19T11:55:48;9.43;;;6.80;;
71296;SDS011;59082;50.658;4.608;2022-08-19T11:58:21;10.55;;;7.30;;
71296;SDS011;59082;50.658;4.608;2022-08-19T12:00:47;12.10;;;7.68;;
71296;SDS011;59082;50.658;4.608;2022-08-19T12:03:13;11.87;;;7.60;;
71296;SDS011;59082;50.658;4.608;2022-08-19T12:05:39;10.27;;;7.65;;
71296;SDS011;59082;50.658;4.608;2022-08-19T12:08:05;11.02;;;7.90;;
71296;SDS011;59082;50.658;4.608;2022-08-19T12:10:33;10.00;;;7.97;;
71296;SDS011;59082;50.658;4.608;2022-08-19T12:12:58;8.98;;;7.13;;
71296;SDS011;59082;50.658;4.608;2022-08-19T12:15:24;8.48;;;6.85;;
71296;SDS011;59082;50.658;4.608;2022-08-19T12:17:53;8.43;;;6.50;;
71296;SDS011;59082;50.658;4.608;2022-08-19T12:20:21;7.38;;;5.93;;
71296;SDS011;59082;50.658;4.608;2022-08-19T12:22:47;8.30;;;6.03;;
71296;SDS011;59082;50.658;4.608;2022-08-19T12:25:13;6.32;;;5.43;;
71296;SDS011;59082;50.658;4.608;2022-08-19T12:27:39;6.37;;;5.07;;
71296;SDS011;59082;50.658;4.608;2022-08-19T12:30:05;8.00;;;5.85;;
71296;SDS011;59082;50.658;4.608;2022-08-19T12:32:34;6.82;;;5.18;;
71296;SDS011;59082;50.658;4.608;2022-08-19T12:34:59;6.30;;;4.80;;
71296;SDS011;59082;50.658;4.608;2022-08-19T12:37:26;7.93;;;5.80;;
71296;SDS011;59082;50.658;4.608;2022-08-19T12:39:51;6.40;;;5.28;;
71296;SDS011;59082;50.658;4.608;2022-08-19T12:42:17;6.53;;;4.83;;
71296;SDS011;59082;50.658;4.608;2022-08-19T12:44:43;5.72;;;4.70;;
71296;SDS011;59082;50.658;4.608;2022-08-19T12:47:09;4.27;;;3.83;;
71296;SDS011;59082;50.658;4.608;2022-08-19T12:49:37;4.57;;;3.92;;
71296;SDS011;59082;50.658;4.608;2022-08-19T12:52:04;5.47;;;4.68;;
71296;SDS011;59082;50.658;4.608;2022-08-19T12:54:32;5.80;;;5.28;;
71296;SDS011;59082;50.658;4.608;2022-08-19T12:56:57;6.60;;;5.97;;
71296;SDS011;59082;50.658;4.608;2022-08-19T12:59:24;5.85;;;5.10;;
71296;SDS011;59082;50.658;4.608;2022-08-19T13:01:50;5.93;;;4.60;;
71296;SDS011;59082;50.658;4.608;2022-08-19T13:04:15;6.00;;;4.40;;
71296;SDS011;59082;50.658;4.608;2022-08-19T13:06:41;5.83;;;4.33;;
71296;SDS011;59082;50.658;4.608;2022-08-19T13:09:07;5.23;;;4.83;;
71296;SDS011;59082;50.658;4.608;2022-08-19T13:11:33;5.53;;;5.03;;
71296;SDS011;59082;50.658;4.608;2022-08-19T13:14:00;5.05;;;4.63;;
71296;SDS011;59082;50.658;4.608;2022-08-19T13:16:26;5.00;;;4.45;;
71296;SDS011;59082;50.658;4.608;2022-08-19T13:18:53;4.22;;;3.42;;
71296;SDS011;59082;50.658;4.608;2022-08-19T13:21:21;3.83;;;3.50;;
71296;SDS011;59082;50.658;4.608;2022-08-19T13:23:49;3.08;;;2.85;;
71296;SDS011;59082;50.658;4.608;2022-08-19T13:26:15;5.18;;;2.85;;
71296;SDS011;59082;50.658;4.608;2022-08-19T13:28:41;5.30;;;3.17;;
71296;SDS011;59082;50.658;4.608;2022-08-19T13:31:27;5.63;;;3.67;;
71296;SDS011;59082;50.658;4.608;2022-08-19T13:34:14;4.17;;;2.80;;
71296;SDS011;59082;50.658;4.608;2022-08-19T13:36:40;3.45;;;3.08;;
71296;SDS011;59082;50.658;4.608;2022-08-19T13:39:07;4.45;;;3.17;;
71296;SDS011;59082;50.658;4.608;2022-08-19T13:41:34;4.03;;;2.75;;
71296;SDS011;59082;50.658;4.608;2022-08-19T13:44:00;3.83;;;2.57;;
71296;SDS011;59082;50.658;4.608;2022-08-19T13:46:26;3.45;;;2.75;;
71296;SDS011;59082;50.658;4.608;2022-08-19T13:48:54;5.18;;;3.00;;
71296;SDS011;59082;50.658;4.608;2022-08-19T13:51:20;3.22;;;2.53;;
71296;SDS011;59082;50.658;4.608;2022-08-19T13:53:45;4.07;;;2.67;;
71296;SDS011;59082;50.658;4.608;2022-08-19T13:56:13;3.77;;;2.87;;
71296;SDS011;59082;50.658;4.608;2022-08-19T13:58:41;2.53;;;2.00;;
71296;SDS011;59082;50.658;4.608;2022-08-19T14:01:08;2.43;;;1.33;;
71296;SDS011;59082;50.658;4.608;2022-08-19T14:03:34;1.85;;;1.20;;
71296;SDS011;59082;50.658;4.608;2022-08-19T14:05:59;2.67;;;1.20;;
71296;SDS011;59082;50.658;4.608;2022-08-19T14:08:25;2.83;;;0.60;;
71296;SDS011;59082;50.658;4.608;2022-08-19T14:10:53;2.30;;;1.38;;
71296;SDS011;59082;50.658;4.608;2022-08-19T14:13:22;1.45;;;0.98;;
71296;SDS011;59082;50.658;4.608;2022-08-19T14:15:49;1.75;;;1.20;;
71296;SDS011;59082;50.658;4.608;2022-08-19T14:18:15;2.00;;;1.10;;
71296;SDS011;59082;50.658;4.608;2022-08-19T14:20:42;1.77;;;1.00;;
71296;SDS011;59082;50.658;4.608;2022-08-19T14:23:08;2.53;;;2.25;;
71296;SDS011;59082;50.658;4.608;2022-08-19T14:25:34;1.37;;;0.30;;
71296;SDS011;59082;50.658;4.608;2022-08-19T14:28:00;2.20;;;0.65;;
71296;SDS011;59082;50.658;4.608;2022-08-19T14:30:27;1.02;;;0.45;;
71296;SDS011;59082;50.658;4.608;2022-08-19T14:32:56;1.88;;;0.82;;
71296;SDS011;59082;50.658;4.608;2022-08-19T14:35:24;3.63;;;1.47;;
71296;SDS011;59082;50.658;4.608;2022-08-19T14:37:53;3.85;;;1.98;;
71296;SDS011;59082;50.658;4.608;2022-08-19T14:40:21;4.80;;;3.58;;
71296;SDS011;59082;50.658;4.608;2022-08-19T14:42:51;4.88;;;4.38;;
71296;SDS011;59082;50.658;4.608;2022-08-19T14:45:20;5.35;;;4.28;;
71296;SDS011;59082;50.658;4.608;2022-08-19T14:47:46;4.33;;;3.30;;
71296;SDS011;59082;50.658;4.608;2022-08-19T14:50:11;1.85;;;1.23;;
71296;SDS011;59082;50.658;4.608;2022-08-19T14:52:38;2.20;;;1.30;;